sensor_id;sensor_type;location;lat;lon;timestamp;P1;durP1;ratioP1;P2;durP2;ratioP2
6292;SDS011;3179;54.350;10.102;2023-02-11T00:01:35;24.43;;;5.47;;
6292;SDS011;3179;54.350;10.102;2023-02-11T00:04:02;11.57;;;5.00;;
6292;SDS011;3179;54.350;10.102;2023-02-11T00:06:30;21.37;;;6.60;;
6292;SDS011;3179;54.350;10.102;2023-02-11T00:08:59;17.23;;;5.03;;
6292;SDS011;3179;54.350;10.102;2023-02-11T00:11:27;23.20;;;6.27;;
6292;SDS011;3179;54.350;10.102;2023-02-11T00:13:54;21.43;;;5.40;;
6292;SDS011;3179;54.350;10.102;2023-02-11T00:16:21;15.57;;;5.00;;
6292;SDS011;3179;54.350;10.102;2023-02-11T00:18:48;19.77;;;6.73;;
6292;SDS011;3179;54.350;10.102;2023-02-11T00:21:17;17.03;;;5.83;;
6292;SDS011;3179;54.350;10.102;2023-02-11T00:23:45;28.63;;;6.10;;
6292;SDS011;3179;54.350;10.102;2023-02-11T00:26:15;25.93;;;6.80;;
6292;SDS011;3179;54.350;10.102;2023-02-11T00:28:43;17.47;;;5.43;;
6292;SDS011;3179;54.350;10.102;2023-02-11T00:31:11;15.47;;;4.77;;
6292;SDS011;3179;54.350;10.102;2023-02-11T00:33:39;28.07;;;7.17;;
6292;SDS011;3179;54.350;10.102;2023-02-11T00:36:06;27.23;;;7.13;;
6292;SDS011;3179;54.350;10.102;2023-02-11T00:38:36;23.73;;;7.97;;
6292;SDS011;3179;54.350;10.102;2023-02-11T00:41:03;21.37;;;6.90;;
6292;SDS011;3179;54.350;10.102;2023-02-11T00:43:31;26.90;;;7.83;;
6292;SDS011;3179;54.350;10.102;2023-02-11T00:45:58;36.37;;;7.23;;
6292;SDS011;3179;54.350;10.102;2023-02-11T00:48:25;25.87;;;7.20;;
6292;SDS011;3179;54.350;10.102;2023-02-11T00:50:51;24.07;;;7.10;;
6292;SDS011;3179;54.350;10.102;2023-02-11T00:53:18;18.37;;;7.50;;
6292;SDS011;3179;54.350;10.102;2023-02-11T00:55:45;29.90;;;8.10;;
6292;SDS011;3179;54.350;10.102;2023-02-11T00:58:12;33.50;;;7.70;;
6292;SDS011;3179;54.350;10.102;2023-02-11T01:00:40;36.73;;;9.07;;
6292;SDS011;3179;54.350;10.102;2023-02-11T01:03:06;24.50;;;8.00;;
6292;SDS011;3179;54.350;10.102;2023-02-11T01:05:33;27.23;;;8.00;;
6292;SDS011;3179;54.350;10.102;2023-02-11T01:08:00;22.97;;;7.63;;
6292;SDS011;3179;54.350;10.102;2023-02-11T01:10:27;25.63;;;8.33;;
6292;SDS011;3179;54.350;10.102;2023-02-11T01:12:54;38.63;;;9.20;;
6292;SDS011;3179;54.350;10.102;2023-02-11T01:15:21;27.33;;;7.63;;
6292;SDS011;3179;54.350;10.102;2023-02-11T01:17:49;36.57;;;8.43;;
6292;SDS011;3179;54.350;10.102;2023-02-11T01:20:18;21.70;;;7.47;;
6292;SDS011;3179;54.350;10.102;2023-02-11T01:22:45;38.33;;;10.00;;
6292;SDS011;3179;54.350;10.102;2023-02-11T01:25:12;43.90;;;10.83;;
6292;SDS011;3179;54.350;10.102;2023-02-11T01:27:39;42.23;;;9.20;;
6292;SDS011;3179;54.350;10.102;2023-02-11T01:30:07;38.40;;;9.67;;
6292;SDS011;3179;54.350;10.102;2023-02-11T01:32:35;30.73;;;9.30;;
6292;SDS011;3179;54.350;10.102;2023-02-11T01:35:04;34.77;;;9.40;;
6292;SDS011;3179;54.350;10.102;2023-02-11T01:43:46;37.53;;;8.90;;
6292;SDS011;3179;54.350;10.102;2023-02-11T01:46:25;22.30;;;8.17;;
6292;SDS011;3179;54.350;10.102;2023-02-11T01:48:59;32.70;;;9.60;;
6292;SDS011;3179;54.350;10.102;2023-02-11T01:51:32;38.00;;;9.70;;
6292;SDS011;3179;54.350;10.102;2023-02-11T01:54:02;31.60;;;10.10;;
6292;SDS011;3179;54.350;10.102;2023-02-11T01:56:48;28.03;;;8.57;;
6292;SDS011;3179;54.350;10.102;2023-02-11T01:59:37;22.03;;;9.23;;
6292;SDS011;3179;54.350;10.102;2023-02-11T02:02:08;31.97;;;8.70;;
6292;SDS011;3179;54.350;10.102;2023-02-11T02:04:38;35.17;;;8.00;;
6292;SDS011;3179;54.350;10.102;2023-02-11T02:07:11;35.83;;;9.40;;
6292;SDS011;3179;54.350;10.102;2023-02-11T02:09:43;23.10;;;8.03;;
6292;SDS011;3179;54.350;10.102;2023-02-11T02:12:14;41.83;;;8.53;;
6292;SDS011;3179;54.350;10.102;2023-02-11T02:14:41;34.47;;;9.97;;
6292;SDS011;3179;54.350;10.102;2023-02-11T02:17:09;27.40;;;9.53;;
6292;SDS011;3179;54.350;10.102;2023-02-11T02:22:53;32.30;;;7.90;;
6292;SDS011;3179;54.350;10.102;2023-02-11T02:25:46;30.87;;;8.50;;
6292;SDS011;3179;54.350;10.102;2023-02-11T02:31:33;31.53;;;8.17;;
6292;SDS011;3179;54.350;10.102;2023-02-11T02:34:19;29.43;;;8.40;;
6292;SDS011;3179;54.350;10.102;2023-02-11T02:36:54;28.73;;;8.17;;
6292;SDS011;3179;54.350;10.102;2023-02-11T02:39:28;26.73;;;8.43;;
6292;SDS011;3179;54.350;10.102;2023-02-11T02:41:58;27.03;;;9.00;;
6292;SDS011;3179;54.350;10.102;2023-02-11T02:44:25;29.07;;;9.23;;
6292;SDS011;3179;54.350;10.102;2023-02-11T02:46:53;26.27;;;7.13;;
6292;SDS011;3179;54.350;10.102;2023-02-11T02:49:21;47.90;;;8.57;;
6292;SDS011;3179;54.350;10.102;2023-02-11T02:51:52;29.37;;;8.53;;
6292;SDS011;3179;54.350;10.102;2023-02-11T02:54:42;35.93;;;8.50;;
6292;SDS011;3179;54.350;10.102;2023-02-11T02:57:31;26.83;;;7.70;;
6292;SDS011;3179;54.350;10.102;2023-02-11T03:00:15;27.33;;;7.23;;
6292;SDS011;3179;54.350;10.102;2023-02-11T03:02:56;33.03;;;8.90;;
6292;SDS011;3179;54.350;10.102;2023-02-11T03:05:33;37.00;;;10.07;;
6292;SDS011;3179;54.350;10.102;2023-02-11T03:08:06;26.73;;;6.60;;
6292;SDS011;3179;54.350;10.102;2023-02-11T03:10:37;19.03;;;7.07;;
6292;SDS011;3179;54.350;10.102;2023-02-11T03:13:08;23.37;;;7.13;;
6292;SDS011;3179;54.350;10.102;2023-02-11T03:15:37;25.43;;;7.03;;
6292;SDS011;3179;54.350;10.102;2023-02-11T03:18:07;23.17;;;7.67;;
6292;SDS011;3179;54.350;10.102;2023-02-11T03:20:38;30.33;;;8.47;;
6292;SDS011;3179;54.350;10.102;2023-02-11T03:23:10;32.97;;;7.80;;
6292;SDS011;3179;54.350;10.102;2023-02-11T03:25:40;36.37;;;8.87;;
6292;SDS011;3179;54.350;10.102;2023-02-11T03:28:12;22.90;;;6.90;;
6292;SDS011;3179;54.350;10.102;2023-02-11T03:30:44;26.53;;;7.00;;
6292;SDS011;3179;54.350;10.102;2023-02-11T03:33:16;25.47;;;7.43;;
6292;SDS011;3179;54.350;10.102;2023-02-11T03:35:50;39.67;;;9.03;;
6292;SDS011;3179;54.350;10.102;2023-02-11T03:38:22;24.00;;;7.30;;
6292;SDS011;3179;54.350;10.102;2023-02-11T03:40:52;26.57;;;7.80;;
6292;SDS011;3179;54.350;10.102;2023-02-11T03:43:21;30.43;;;8.10;;
6292;SDS011;3179;54.350;10.102;2023-02-11T03:45:53;32.70;;;8.23;;
6292;SDS011;3179;54.350;10.102;2023-02-11T03:48:22;26.10;;;7.03;;
6292;SDS011;3179;54.350;10.102;2023-02-11T03:50:53;27.37;;;6.53;;
6292;SDS011;3179;54.350;10.102;2023-02-11T03:53:21;20.70;;;6.60;;
6292;SDS011;3179;54.350;10.102;2023-02-11T03:55:48;31.37;;;7.33;;
6292;SDS011;3179;54.350;10.102;2023-02-11T03:58:17;20.73;;;7.27;;
6292;SDS011;3179;54.350;10.102;2023-02-11T04:00:44;24.57;;;7.30;;
6292;SDS011;3179;54.350;10.102;2023-02-11T04:03:11;29.10;;;7.23;;
6292;SDS011;3179;54.350;10.102;2023-02-11T04:05:38;19.80;;;7.27;;
6292;SDS011;3179;54.350;10.102;2023-02-11T04:08:07;26.30;;;7.63;;
6292;SDS011;3179;54.350;10.102;2023-02-11T04:10:34;30.47;;;8.90;;
6292;SDS011;3179;54.350;10.102;2023-02-11T04:13:01;25.07;;;6.97;;
6292;SDS011;3179;54.350;10.102;2023-02-11T04:15:27;28.27;;;7.60;;
6292;SDS011;3179;54.350;10.102;2023-02-11T04:17:54;28.73;;;7.73;;
6292;SDS011;3179;54.350;10.102;2023-02-11T04:20:21;26.20;;;7.23;;
6292;SDS011;3179;54.350;10.102;2023-02-11T04:22:47;31.93;;;7.60;;
6292;SDS011;3179;54.350;10.102;2023-02-11T04:25:16;26.47;;;6.53;;
6292;SDS011;3179;54.350;10.102;2023-02-11T04:27:43;26.80;;;7.90;;
6292;SDS011;3179;54.350;10.102;2023-02-11T04:30:10;24.70;;;7.90;;
6292;SDS011;3179;54.350;10.102;2023-02-11T04:32:38;19.70;;;6.47;;
6292;SDS011;3179;54.350;10.102;2023-02-11T04:35:05;26.03;;;6.80;;
6292;SDS011;3179;54.350;10.102;2023-02-11T04:37:32;36.93;;;8.40;;
6292;SDS011;3179;54.350;10.102;2023-02-11T04:39:59;35.10;;;7.43;;
6292;SDS011;3179;54.350;10.102;2023-02-11T04:42:27;40.33;;;6.53;;
6292;SDS011;3179;54.350;10.102;2023-02-11T04:44:54;25.93;;;6.20;;
6292;SDS011;3179;54.350;10.102;2023-02-11T04:47:21;23.30;;;7.30;;
6292;SDS011;3179;54.350;10.102;2023-02-11T04:49:48;28.97;;;7.70;;
6292;SDS011;3179;54.350;10.102;2023-02-11T04:52:15;31.70;;;7.40;;
6292;SDS011;3179;54.350;10.102;2023-02-11T04:54:42;21.57;;;7.17;;
6292;SDS011;3179;54.350;10.102;2023-02-11T04:57:09;34.80;;;8.87;;
6292;SDS011;3179;54.350;10.102;2023-02-11T04:59:37;19.00;;;6.80;;
6292;SDS011;3179;54.350;10.102;2023-02-11T05:02:04;30.57;;;6.50;;
6292;SDS011;3179;54.350;10.102;2023-02-11T05:04:31;30.10;;;6.37;;
6292;SDS011;3179;54.350;10.102;2023-02-11T05:06:58;25.30;;;7.00;;
6292;SDS011;3179;54.350;10.102;2023-02-11T05:09:25;45.03;;;8.03;;
6292;SDS011;3179;54.350;10.102;2023-02-11T05:11:51;35.97;;;6.90;;
6292;SDS011;3179;54.350;10.102;2023-02-11T05:14:18;33.17;;;8.13;;
6292;SDS011;3179;54.350;10.102;2023-02-11T05:16:46;36.47;;;7.27;;
6292;SDS011;3179;54.350;10.102;2023-02-11T05:19:13;27.73;;;6.90;;
6292;SDS011;3179;54.350;10.102;2023-02-11T05:21:40;30.23;;;8.33;;
6292;SDS011;3179;54.350;10.102;2023-02-11T05:24:07;38.37;;;7.53;;
6292;SDS011;3179;54.350;10.102;2023-02-11T05:26:33;29.33;;;6.37;;
6292;SDS011;3179;54.350;10.102;2023-02-11T05:29:00;23.70;;;5.73;;
6292;SDS011;3179;54.350;10.102;2023-02-11T05:31:27;25.13;;;7.33;;
6292;SDS011;3179;54.350;10.102;2023-02-11T05:33:55;37.03;;;6.93;;
6292;SDS011;3179;54.350;10.102;2023-02-11T05:36:22;22.77;;;6.77;;
6292;SDS011;3179;54.350;10.102;2023-02-11T05:38:49;24.27;;;6.50;;
6292;SDS011;3179;54.350;10.102;2023-02-11T05:41:15;33.60;;;6.87;;
6292;SDS011;3179;54.350;10.102;2023-02-11T05:43:42;28.87;;;6.13;;
6292;SDS011;3179;54.350;10.102;2023-02-11T05:46:09;29.43;;;6.57;;
6292;SDS011;3179;54.350;10.102;2023-02-11T05:48:35;32.50;;;7.07;;
6292;SDS011;3179;54.350;10.102;2023-02-11T05:51:04;31.90;;;7.23;;
6292;SDS011;3179;54.350;10.102;2023-02-11T05:53:31;29.83;;;6.03;;
6292;SDS011;3179;54.350;10.102;2023-02-11T05:55:57;23.87;;;5.77;;
6292;SDS011;3179;54.350;10.102;2023-02-11T05:58:24;26.80;;;6.13;;
6292;SDS011;3179;54.350;10.102;2023-02-11T06:00:51;20.33;;;6.50;;
6292;SDS011;3179;54.350;10.102;2023-02-11T06:03:18;28.50;;;5.57;;
6292;SDS011;3179;54.350;10.102;2023-02-11T06:05:44;22.50;;;5.13;;
6292;SDS011;3179;54.350;10.102;2023-02-11T06:08:13;21.97;;;5.73;;
6292;SDS011;3179;54.350;10.102;2023-02-11T06:10:39;28.67;;;5.60;;
6292;SDS011;3179;54.350;10.102;2023-02-11T06:13:09;15.80;;;4.70;;
6292;SDS011;3179;54.350;10.102;2023-02-11T06:15:36;19.77;;;5.77;;
6292;SDS011;3179;54.350;10.102;2023-02-11T06:18:02;18.10;;;4.67;;
6292;SDS011;3179;54.350;10.102;2023-02-11T06:20:29;16.03;;;4.93;;
6292;SDS011;3179;54.350;10.102;2023-02-11T06:22:56;16.37;;;5.10;;
6292;SDS011;3179;54.350;10.102;2023-02-11T06:25:24;14.83;;;4.40;;
6292;SDS011;3179;54.350;10.102;2023-02-11T06:27:51;19.67;;;5.00;;
6292;SDS011;3179;54.350;10.102;2023-02-11T06:30:18;17.40;;;4.27;;
6292;SDS011;3179;54.350;10.102;2023-02-11T06:32:45;22.17;;;5.40;;
6292;SDS011;3179;54.350;10.102;2023-02-11T06:35:12;22.00;;;5.70;;
6292;SDS011;3179;54.350;10.102;2023-02-11T06:37:39;22.00;;;5.20;;
6292;SDS011;3179;54.350;10.102;2023-02-11T06:40:06;20.77;;;5.10;;
6292;SDS011;3179;54.350;10.102;2023-02-11T06:42:35;20.77;;;5.20;;
6292;SDS011;3179;54.350;10.102;2023-02-11T06:45:03;20.00;;;4.70;;
6292;SDS011;3179;54.350;10.102;2023-02-11T06:47:33;14.50;;;4.80;;
6292;SDS011;3179;54.350;10.102;2023-02-11T06:49:59;16.63;;;4.63;;
6292;SDS011;3179;54.350;10.102;2023-02-11T06:52:26;18.30;;;4.60;;
6292;SDS011;3179;54.350;10.102;2023-02-11T06:54:53;15.30;;;5.13;;
6292;SDS011;3179;54.350;10.102;2023-02-11T06:57:19;32.53;;;6.00;;
6292;SDS011;3179;54.350;10.102;2023-02-11T06:59:48;21.70;;;4.50;;
6292;SDS011;3179;54.350;10.102;2023-02-11T07:02:14;16.40;;;4.37;;
6292;SDS011;3179;54.350;10.102;2023-02-11T07:04:42;19.00;;;4.17;;
6292;SDS011;3179;54.350;10.102;2023-02-11T07:07:08;20.67;;;5.63;;
6292;SDS011;3179;54.350;10.102;2023-02-11T07:09:35;19.20;;;4.93;;
6292;SDS011;3179;54.350;10.102;2023-02-11T07:12:02;25.33;;;5.07;;
6292;SDS011;3179;54.350;10.102;2023-02-11T07:14:29;19.70;;;5.03;;
6292;SDS011;3179;54.350;10.102;2023-02-11T07:16:57;32.40;;;5.40;;
6292;SDS011;3179;54.350;10.102;2023-02-11T07:19:24;21.43;;;4.93;;
6292;SDS011;3179;54.350;10.102;2023-02-11T07:21:50;28.90;;;5.03;;
6292;SDS011;3179;54.350;10.102;2023-02-11T07:24:18;21.50;;;4.50;;
6292;SDS011;3179;54.350;10.102;2023-02-11T07:26:45;33.10;;;5.63;;
6292;SDS011;3179;54.350;10.102;2023-02-11T07:29:11;19.63;;;4.60;;
6292;SDS011;3179;54.350;10.102;2023-02-11T07:31:38;26.40;;;5.50;;
6292;SDS011;3179;54.350;10.102;2023-02-11T07:34:08;18.30;;;4.60;;
6292;SDS011;3179;54.350;10.102;2023-02-11T07:36:35;24.77;;;5.43;;
6292;SDS011;3179;54.350;10.102;2023-02-11T07:39:02;23.33;;;5.50;;
6292;SDS011;3179;54.350;10.102;2023-02-11T07:41:29;21.73;;;4.90;;
6292;SDS011;3179;54.350;10.102;2023-02-11T07:43:56;28.57;;;5.77;;
6292;SDS011;3179;54.350;10.102;2023-02-11T07:46:24;31.70;;;6.13;;
6292;SDS011;3179;54.350;10.102;2023-02-11T07:48:52;22.43;;;4.93;;
6292;SDS011;3179;54.350;10.102;2023-02-11T07:51:21;23.00;;;4.67;;
6292;SDS011;3179;54.350;10.102;2023-02-11T07:53:50;26.23;;;5.17;;
6292;SDS011;3179;54.350;10.102;2023-02-11T07:56:18;24.30;;;5.33;;
6292;SDS011;3179;54.350;10.102;2023-02-11T07:58:45;17.27;;;4.33;;
6292;SDS011;3179;54.350;10.102;2023-02-11T08:01:13;21.80;;;5.13;;
6292;SDS011;3179;54.350;10.102;2023-02-11T08:03:41;17.37;;;5.10;;
6292;SDS011;3179;54.350;10.102;2023-02-11T08:06:09;21.97;;;4.80;;
6292;SDS011;3179;54.350;10.102;2023-02-11T08:08:38;16.97;;;4.90;;
6292;SDS011;3179;54.350;10.102;2023-02-11T08:11:06;17.87;;;5.10;;
6292;SDS011;3179;54.350;10.102;2023-02-11T08:13:34;17.37;;;5.00;;
6292;SDS011;3179;54.350;10.102;2023-02-11T08:16:00;21.23;;;5.17;;
6292;SDS011;3179;54.350;10.102;2023-02-11T08:18:28;19.37;;;5.23;;
6292;SDS011;3179;54.350;10.102;2023-02-11T08:20:55;29.13;;;6.27;;
6292;SDS011;3179;54.350;10.102;2023-02-11T08:23:21;17.53;;;4.50;;
6292;SDS011;3179;54.350;10.102;2023-02-11T08:25:49;24.80;;;5.83;;
6292;SDS011;3179;54.350;10.102;2023-02-11T08:28:16;32.10;;;4.97;;
6292;SDS011;3179;54.350;10.102;2023-02-11T08:30:43;18.27;;;5.10;;
6292;SDS011;3179;54.350;10.102;2023-02-11T08:33:10;21.87;;;5.47;;
6292;SDS011;3179;54.350;10.102;2023-02-11T08:35:36;21.17;;;4.50;;
6292;SDS011;3179;54.350;10.102;2023-02-11T08:38:04;21.97;;;4.77;;
6292;SDS011;3179;54.350;10.102;2023-02-11T08:40:31;27.43;;;5.43;;
6292;SDS011;3179;54.350;10.102;2023-02-11T08:42:59;25.23;;;5.43;;
6292;SDS011;3179;54.350;10.102;2023-02-11T08:45:26;22.73;;;5.67;;
6292;SDS011;3179;54.350;10.102;2023-02-11T08:47:52;19.37;;;4.63;;
6292;SDS011;3179;54.350;10.102;2023-02-11T08:50:19;27.00;;;5.07;;
6292;SDS011;3179;54.350;10.102;2023-02-11T08:52:46;18.03;;;4.20;;
6292;SDS011;3179;54.350;10.102;2023-02-11T08:55:13;19.00;;;4.83;;
6292;SDS011;3179;54.350;10.102;2023-02-11T08:57:39;18.07;;;4.47;;
6292;SDS011;3179;54.350;10.102;2023-02-11T09:00:08;24.70;;;5.90;;
6292;SDS011;3179;54.350;10.102;2023-02-11T09:02:36;16.07;;;4.17;;
6292;SDS011;3179;54.350;10.102;2023-02-11T09:05:03;28.50;;;5.60;;
6292;SDS011;3179;54.350;10.102;2023-02-11T09:07:30;17.80;;;4.03;;
6292;SDS011;3179;54.350;10.102;2023-02-11T09:09:56;14.93;;;4.30;;
6292;SDS011;3179;54.350;10.102;2023-02-11T09:12:23;15.70;;;4.00;;
6292;SDS011;3179;54.350;10.102;2023-02-11T09:14:50;18.03;;;4.50;;
6292;SDS011;3179;54.350;10.102;2023-02-11T09:17:18;17.07;;;4.20;;
6292;SDS011;3179;54.350;10.102;2023-02-11T09:19:45;15.23;;;4.30;;
6292;SDS011;3179;54.350;10.102;2023-02-11T09:22:12;19.93;;;4.73;;
6292;SDS011;3179;54.350;10.102;2023-02-11T09:24:38;20.60;;;3.87;;
6292;SDS011;3179;54.350;10.102;2023-02-11T09:27:05;14.17;;;3.30;;
6292;SDS011;3179;54.350;10.102;2023-02-11T09:29:32;14.07;;;4.03;;
6292;SDS011;3179;54.350;10.102;2023-02-11T09:31:59;11.47;;;3.30;;
6292;SDS011;3179;54.350;10.102;2023-02-11T09:34:27;15.63;;;4.00;;
6292;SDS011;3179;54.350;10.102;2023-02-11T09:36:54;17.90;;;4.17;;
6292;SDS011;3179;54.350;10.102;2023-02-11T09:39:20;18.13;;;4.07;;
6292;SDS011;3179;54.350;10.102;2023-02-11T09:44:45;13.87;;;3.60;;
6292;SDS011;3179;54.350;10.102;2023-02-11T09:47:18;20.50;;;4.37;;
6292;SDS011;3179;54.350;10.102;2023-02-11T09:49:52;19.43;;;3.57;;
6292;SDS011;3179;54.350;10.102;2023-02-11T09:52:24;15.40;;;3.70;;
6292;SDS011;3179;54.350;10.102;2023-02-11T09:54:58;18.27;;;4.53;;
6292;SDS011;3179;54.350;10.102;2023-02-11T09:57:27;16.47;;;3.80;;
6292;SDS011;3179;54.350;10.102;2023-02-11T09:59:57;16.20;;;3.30;;
6292;SDS011;3179;54.350;10.102;2023-02-11T10:02:26;22.30;;;4.73;;
6292;SDS011;3179;54.350;10.102;2023-02-11T10:05:11;17.47;;;5.53;;
6292;SDS011;3179;54.350;10.102;2023-02-11T10:07:50;28.10;;;4.97;;
6292;SDS011;3179;54.350;10.102;2023-02-11T10:10:30;20.50;;;5.83;;
6292;SDS011;3179;54.350;10.102;2023-02-11T10:13:15;20.43;;;4.40;;
6292;SDS011;3179;54.350;10.102;2023-02-11T10:15:56;25.67;;;4.77;;
6292;SDS011;3179;54.350;10.102;2023-02-11T10:18:35;13.60;;;3.43;;
6292;SDS011;3179;54.350;10.102;2023-02-11T10:21:24;19.50;;;3.70;;
6292;SDS011;3179;54.350;10.102;2023-02-11T10:23:58;25.93;;;5.10;;
6292;SDS011;3179;54.350;10.102;2023-02-11T10:26:30;20.87;;;4.40;;
6292;SDS011;3179;54.350;10.102;2023-02-11T10:28:59;24.03;;;4.63;;
6292;SDS011;3179;54.350;10.102;2023-02-11T10:31:30;24.87;;;4.27;;
6292;SDS011;3179;54.350;10.102;2023-02-11T10:34:03;14.40;;;3.33;;
6292;SDS011;3179;54.350;10.102;2023-02-11T10:36:33;18.73;;;3.57;;
6292;SDS011;3179;54.350;10.102;2023-02-11T10:39:01;16.97;;;4.43;;
6292;SDS011;3179;54.350;10.102;2023-02-11T10:41:37;17.20;;;4.40;;
6292;SDS011;3179;54.350;10.102;2023-02-11T10:44:06;13.03;;;4.00;;
6292;SDS011;3179;54.350;10.102;2023-02-11T10:46:35;21.57;;;3.47;;
6292;SDS011;3179;54.350;10.102;2023-02-11T10:49:04;13.77;;;2.87;;
6292;SDS011;3179;54.350;10.102;2023-02-11T10:51:31;17.10;;;4.10;;
6292;SDS011;3179;54.350;10.102;2023-02-11T10:54:09;11.67;;;3.50;;
6292;SDS011;3179;54.350;10.102;2023-02-11T10:56:43;9.63;;;3.00;;
6292;SDS011;3179;54.350;10.102;2023-02-11T10:59:14;16.83;;;3.87;;
6292;SDS011;3179;54.350;10.102;2023-02-11T11:01:47;13.03;;;3.33;;
6292;SDS011;3179;54.350;10.102;2023-02-11T11:04:25;17.03;;;3.60;;
6292;SDS011;3179;54.350;10.102;2023-02-11T11:07:11;8.57;;;2.60;;
6292;SDS011;3179;54.350;10.102;2023-02-11T11:09:45;12.43;;;3.00;;
6292;SDS011;3179;54.350;10.102;2023-02-11T11:12:24;6.70;;;2.87;;
6292;SDS011;3179;54.350;10.102;2023-02-11T11:15:15;10.60;;;2.93;;
6292;SDS011;3179;54.350;10.102;2023-02-11T11:17:45;7.93;;;2.90;;
6292;SDS011;3179;54.350;10.102;2023-02-11T11:20:14;16.23;;;3.50;;
6292;SDS011;3179;54.350;10.102;2023-02-11T11:22:48;14.60;;;3.00;;
6292;SDS011;3179;54.350;10.102;2023-02-11T11:25:24;8.20;;;2.83;;
6292;SDS011;3179;54.350;10.102;2023-02-11T11:27:53;12.70;;;3.10;;
6292;SDS011;3179;54.350;10.102;2023-02-11T11:30:22;12.13;;;3.10;;
6292;SDS011;3179;54.350;10.102;2023-02-11T11:32:52;11.27;;;3.10;;
6292;SDS011;3179;54.350;10.102;2023-02-11T11:35:22;19.23;;;3.17;;
6292;SDS011;3179;54.350;10.102;2023-02-11T11:37:53;6.90;;;2.33;;
6292;SDS011;3179;54.350;10.102;2023-02-11T11:40:23;12.40;;;2.90;;
6292;SDS011;3179;54.350;10.102;2023-02-11T11:43:05;5.50;;;2.17;;
6292;SDS011;3179;54.350;10.102;2023-02-11T11:45:51;11.53;;;3.17;;
6292;SDS011;3179;54.350;10.102;2023-02-11T11:48:20;14.63;;;3.17;;
6292;SDS011;3179;54.350;10.102;2023-02-11T11:50:51;8.17;;;2.73;;
6292;SDS011;3179;54.350;10.102;2023-02-11T11:53:22;15.13;;;2.90;;
6292;SDS011;3179;54.350;10.102;2023-02-11T11:55:55;10.53;;;2.80;;
6292;SDS011;3179;54.350;10.102;2023-02-11T11:58:26;6.00;;;2.10;;
6292;SDS011;3179;54.350;10.102;2023-02-11T12:00:57;9.53;;;2.13;;
6292;SDS011;3179;54.350;10.102;2023-02-11T12:06:34;14.17;;;2.73;;
6292;SDS011;3179;54.350;10.102;2023-02-11T12:09:19;11.30;;;2.20;;
6292;SDS011;3179;54.350;10.102;2023-02-11T12:11:56;7.80;;;2.53;;
6292;SDS011;3179;54.350;10.102;2023-02-11T12:14:40;10.33;;;2.50;;
6292;SDS011;3179;54.350;10.102;2023-02-11T12:17:18;7.27;;;2.70;;
6292;SDS011;3179;54.350;10.102;2023-02-11T12:20:15;6.73;;;2.13;;
6292;SDS011;3179;54.350;10.102;2023-02-11T12:22:53;7.73;;;1.80;;
6292;SDS011;3179;54.350;10.102;2023-02-11T12:25:39;6.13;;;2.33;;
6292;SDS011;3179;54.350;10.102;2023-02-11T12:28:17;12.87;;;3.50;;
6292;SDS011;3179;54.350;10.102;2023-02-11T12:30:53;10.83;;;2.93;;
6292;SDS011;3179;54.350;10.102;2023-02-11T12:33:31;13.23;;;2.20;;
6292;SDS011;3179;54.350;10.102;2023-02-11T12:36:11;19.10;;;2.90;;
6292;SDS011;3179;54.350;10.102;2023-02-11T12:38:51;10.50;;;1.90;;
6292;SDS011;3179;54.350;10.102;2023-02-11T12:41:31;9.67;;;2.20;;
6292;SDS011;3179;54.350;10.102;2023-02-11T12:44:30;8.87;;;2.50;;
6292;SDS011;3179;54.350;10.102;2023-02-11T12:47:08;7.70;;;2.23;;
6292;SDS011;3179;54.350;10.102;2023-02-11T12:49:50;10.00;;;2.50;;
6292;SDS011;3179;54.350;10.102;2023-02-11T12:52:31;8.10;;;2.40;;
6292;SDS011;3179;54.350;10.102;2023-02-11T12:55:11;11.10;;;2.40;;
6292;SDS011;3179;54.350;10.102;2023-02-11T12:57:45;6.13;;;2.20;;
6292;SDS011;3179;54.350;10.102;2023-02-11T13:00:15;12.17;;;2.90;;
6292;SDS011;3179;54.350;10.102;2023-02-11T13:02:45;12.17;;;3.03;;
6292;SDS011;3179;54.350;10.102;2023-02-11T13:05:21;10.03;;;2.97;;
6292;SDS011;3179;54.350;10.102;2023-02-11T13:07:51;17.17;;;2.93;;
6292;SDS011;3179;54.350;10.102;2023-02-11T13:10:25;16.60;;;3.33;;
6292;SDS011;3179;54.350;10.102;2023-02-11T13:12:56;10.93;;;3.23;;
6292;SDS011;3179;54.350;10.102;2023-02-11T13:15:45;16.23;;;3.83;;
6292;SDS011;3179;54.350;10.102;2023-02-11T13:18:21;12.03;;;3.00;;
6292;SDS011;3179;54.350;10.102;2023-02-11T13:21:04;20.83;;;3.60;;
6292;SDS011;3179;54.350;10.102;2023-02-11T13:23:45;20.93;;;4.87;;
6292;SDS011;3179;54.350;10.102;2023-02-11T13:26:22;16.40;;;3.80;;
6292;SDS011;3179;54.350;10.102;2023-02-11T13:28:56;13.57;;;3.07;;
6292;SDS011;3179;54.350;10.102;2023-02-11T13:31:35;11.57;;;3.57;;
6292;SDS011;3179;54.350;10.102;2023-02-11T13:34:02;9.87;;;3.13;;
6292;SDS011;3179;54.350;10.102;2023-02-11T13:36:28;14.43;;;3.00;;
6292;SDS011;3179;54.350;10.102;2023-02-11T13:38:58;23.50;;;4.60;;
6292;SDS011;3179;54.350;10.102;2023-02-11T13:41:30;19.07;;;4.03;;
6292;SDS011;3179;54.350;10.102;2023-02-11T13:44:02;13.97;;;3.27;;
6292;SDS011;3179;54.350;10.102;2023-02-11T13:46:47;11.67;;;2.70;;
6292;SDS011;3179;54.350;10.102;2023-02-11T13:49:21;13.17;;;3.80;;
6292;SDS011;3179;54.350;10.102;2023-02-11T13:51:50;18.80;;;3.70;;
6292;SDS011;3179;54.350;10.102;2023-02-11T13:54:20;10.70;;;2.70;;
6292;SDS011;3179;54.350;10.102;2023-02-11T14:03:23;10.93;;;2.87;;
6292;SDS011;3179;54.350;10.102;2023-02-11T14:06:18;9.87;;;2.67;;
6292;SDS011;3179;54.350;10.102;2023-02-11T14:12:15;24.93;;;3.47;;
6292;SDS011;3179;54.350;10.102;2023-02-11T14:15:01;14.53;;;2.40;;
6292;SDS011;3179;54.350;10.102;2023-02-11T14:17:45;7.90;;;2.13;;
6292;SDS011;3179;54.350;10.102;2023-02-11T14:20:34;11.60;;;2.20;;
6292;SDS011;3179;54.350;10.102;2023-02-11T14:23:03;12.30;;;2.07;;
6292;SDS011;3179;54.350;10.102;2023-02-11T14:25:32;8.97;;;2.40;;
6292;SDS011;3179;54.350;10.102;2023-02-11T14:28:00;4.43;;;1.67;;
6292;SDS011;3179;54.350;10.102;2023-02-11T14:30:41;10.97;;;1.87;;
6292;SDS011;3179;54.350;10.102;2023-02-11T14:33:23;10.43;;;2.47;;
6292;SDS011;3179;54.350;10.102;2023-02-11T14:36:16;8.03;;;1.90;;
6292;SDS011;3179;54.350;10.102;2023-02-11T14:38:57;6.80;;;2.20;;
6292;SDS011;3179;54.350;10.102;2023-02-11T14:41:33;5.30;;;2.30;;
6292;SDS011;3179;54.350;10.102;2023-02-11T14:44:05;8.90;;;2.23;;
6292;SDS011;3179;54.350;10.102;2023-02-11T14:46:42;8.83;;;2.30;;
6292;SDS011;3179;54.350;10.102;2023-02-11T14:49:12;10.20;;;2.87;;
6292;SDS011;3179;54.350;10.102;2023-02-11T14:51:45;13.80;;;3.10;;
6292;SDS011;3179;54.350;10.102;2023-02-11T14:54:13;8.97;;;2.80;;
6292;SDS011;3179;54.350;10.102;2023-02-11T14:56:45;12.33;;;2.17;;
6292;SDS011;3179;54.350;10.102;2023-02-11T14:59:14;11.00;;;2.10;;
6292;SDS011;3179;54.350;10.102;2023-02-11T15:01:44;7.90;;;2.17;;
6292;SDS011;3179;54.350;10.102;2023-02-11T15:04:25;7.73;;;2.73;;
6292;SDS011;3179;54.350;10.102;2023-02-11T15:06:53;7.20;;;2.20;;
6292;SDS011;3179;54.350;10.102;2023-02-11T15:09:23;13.37;;;2.90;;
6292;SDS011;3179;54.350;10.102;2023-02-11T15:11:54;11.53;;;3.40;;
6292;SDS011;3179;54.350;10.102;2023-02-11T15:14:22;10.20;;;2.60;;
6292;SDS011;3179;54.350;10.102;2023-02-11T15:16:51;10.93;;;2.90;;
6292;SDS011;3179;54.350;10.102;2023-02-11T15:19:20;8.30;;;2.50;;
6292;SDS011;3179;54.350;10.102;2023-02-11T15:21:53;9.77;;;3.33;;
6292;SDS011;3179;54.350;10.102;2023-02-11T15:24:22;10.50;;;3.37;;
6292;SDS011;3179;54.350;10.102;2023-02-11T15:26:54;11.53;;;3.20;;
6292;SDS011;3179;54.350;10.102;2023-02-11T15:29:22;12.37;;;3.40;;
6292;SDS011;3179;54.350;10.102;2023-02-11T15:32:01;8.50;;;3.20;;
6292;SDS011;3179;54.350;10.102;2023-02-11T15:34:31;9.03;;;2.87;;
6292;SDS011;3179;54.350;10.102;2023-02-11T15:36:58;11.07;;;3.60;;
6292;SDS011;3179;54.350;10.102;2023-02-11T15:39:29;12.97;;;4.00;;